Terminal Aerodrome Forecast
Issued by NWS

Home | Current Version | Previous Version | Text Only | Print | Product List | Glossary On
Versions: 1 2 3 4 5 6 7 8 9 10 11 12 13 14
000
FTUS43 KABR 101500 AAA
TAFPIR
TAF AMD
KPIR 101516Z 1015/1112 14014KT P6SM VCSH FEW090 BKN120
     FM101700 15012G20KT P6SM SCT050 BKN150
     FM110000 13007KT P6SM BKN120
     FM110600 VRB06KT P6SM FEW250=

USA.gov is the U.S. government's official web portal to all federal, state and local government web resources and services.